Time;durP1;ratioP1;P1;durP2;ratioP2;P2;SDS_P1;SDS_P2;PMS_P1;PMS_P2;Temp;Humidity;BMP_temperature;BMP_pressure;BME280_temperature;BME280_humidity;BME280_pressure;Samples;Min_cycle;Max_cycle;Signal;HPM_P1;HPM_P2
2021/10/22 00:00:57;;;;;;;;;;;20.80;42.30;;;;;;8239479;28;20326;-48
2021/10/22 00:04:57;;;;;;;;;;;20.80;42.30;;;;;;8239019;28;20044;-47
2021/10/22 00:08:57;;;;;;;;;;;20.70;42.30;;;;;;8238740;28;19914;-49
2021/10/22 00:12:58;;;;;;;;;;;20.70;42.30;;;;;;8239090;28;19922;-48
2021/10/22 00:16:58;;;;;;;;;;;20.70;42.30;;;;;;8238742;28;20307;-48
2021/10/22 00:20:59;;;;;;;;;;;20.70;42.40;;;;;;8238116;28;20394;-48
2021/10/22 00:25:00;;;;;;;;;;;20.70;42.40;;;;;;8238920;28;19918;-47
2021/10/22 00:29:01;;;;;;;;;;;20.70;42.40;;;;;;8238517;28;20323;-48
2021/10/22 00:33:01;;;;;;;;;;;20.60;42.40;;;;;;8237636;28;20391;-48
2021/10/22 00:37:03;;;;;;;;;;;20.70;42.50;;;;;;8238072;28;19914;-48
2021/10/22 00:41:04;;;;;;;;;;;20.70;42.50;;;;;;8237573;28;19914;-47
2021/10/22 00:45:07;;;;;;;;;;;20.60;42.50;;;;;;8237760;28;19969;-48
2021/10/22 00:49:09;;;;;;;;;;;20.60;42.50;;;;;;8237017;28;19914;-48
2021/10/22 00:53:10;;;;;;;;;;;20.60;42.60;;;;;;8237339;28;19926;-47
2021/10/22 00:57:12;;;;;;;;;;;20.60;42.60;;;;;;8237389;28;20008;-48
2021/10/22 01:01:13;;;;;;;;;;;20.60;42.60;;;;;;8237445;28;19945;-48
2021/10/22 01:05:15;;;;;;;;;;;20.60;42.60;;;;;;8236818;28;20303;-48
2021/10/22 01:09:16;;;;;;;;;;;20.60;42.70;;;;;;8237014;28;20284;-48
2021/10/22 01:13:17;;;;;;;;;;;20.60;42.70;;;;;;8237042;28;19984;-48
2021/10/22 01:17:30;;;;;;;;;;;20.50;42.70;;;;;;8236667;28;19917;-49
2021/10/22 01:21:31;;;;;;;;;;;20.50;42.70;;;;;;8236740;28;19914;-47
2021/10/22 01:25:32;;;;;;;;;;;20.50;42.80;;;;;;8236948;28;19918;-49
2021/10/22 01:29:32;;;;;;;;;;;20.50;42.80;;;;;;8236427;28;19914;-48
2021/10/22 01:33:33;;;;;;;;;;;20.50;42.90;;;;;;8236367;28;19914;-50
2021/10/22 01:37:33;;;;;;;;;;;20.50;42.90;;;;;;8236535;28;19914;-48
2021/10/22 01:41:34;;;;;;;;;;;20.50;42.90;;;;;;8234818;28;19914;-48
2021/10/22 01:45:34;;;;;;;;;;;20.50;42.90;;;;;;8236625;28;20356;-49
2021/10/22 01:49:35;;;;;;;;;;;20.40;42.90;;;;;;8236209;28;20402;-49
2021/10/22 01:53:35;;;;;;;;;;;20.40;42.90;;;;;;8235663;28;19918;-48
2021/10/22 01:57:35;;;;;;;;;;;20.40;43.00;;;;;;8235822;28;19914;-49
2021/10/22 02:01:36;;;;;;;;;;;20.40;43.00;;;;;;8235606;28;19914;-48
2021/10/22 02:05:37;;;;;;;;;;;20.50;43.00;;;;;;8235375;28;20014;-50
2021/10/22 02:09:37;;;;;;;;;;;20.40;43.00;;;;;;8235784;28;19921;-53
2021/10/22 02:13:37;;;;;;;;;;;20.40;43.00;;;;;;8235222;28;19913;-48
2021/10/22 02:17:38;;;;;;;;;;;20.40;43.00;;;;;;8234798;28;20063;-48
2021/10/22 02:21:39;;;;;;;;;;;20.40;43.00;;;;;;8235369;28;19914;-49
2021/10/22 02:25:39;;;;;;;;;;;20.40;43.00;;;;;;8234902;28;19937;-49
2021/10/22 02:29:40;;;;;;;;;;;20.40;43.10;;;;;;8234369;28;19917;-50
2021/10/22 02:33:41;;;;;;;;;;;20.40;43.10;;;;;;8234504;28;19936;-48
2021/10/22 02:37:42;;;;;;;;;;;20.40;43.10;;;;;;8234733;28;19914;-48
2021/10/22 02:41:45;;;;;;;;;;;20.40;43.20;;;;;;8233958;28;19914;-50
2021/10/22 02:45:45;;;;;;;;;;;20.30;43.20;;;;;;8234460;28;19914;-49
2021/10/22 02:49:46;;;;;;;;;;;20.30;43.20;;;;;;8234430;28;20395;-49
2021/10/22 02:53:47;;;;;;;;;;;20.30;43.20;;;;;;8234178;28;20490;-48
2021/10/22 02:57:47;;;;;;;;;;;20.30;43.20;;;;;;8233834;28;20363;-48
2021/10/22 03:01:47;;;;;;;;;;;20.30;43.30;;;;;;8233903;28;19914;-49
2021/10/22 03:05:48;;;;;;;;;;;20.30;43.30;;;;;;8233457;28;20268;-49
2021/10/22 03:09:48;;;;;;;;;;;20.30;43.30;;;;;;8234173;28;20359;-48
2021/10/22 03:13:49;;;;;;;;;;;20.30;43.40;;;;;;8233134;28;19914;-50
2021/10/22 03:17:49;;;;;;;;;;;20.30;43.40;;;;;;8233211;28;19918;-50
2021/10/22 03:21:50;;;;;;;;;;;20.30;43.40;;;;;;8233643;28;20394;-49
2021/10/22 03:25:50;;;;;;;;;;;20.30;43.50;;;;;;8233573;28;19918;-49
2021/10/22 03:29:51;;;;;;;;;;;20.30;43.40;;;;;;8233036;28;19926;-49
2021/10/22 03:33:51;;;;;;;;;;;20.30;43.40;;;;;;8233703;28;20291;-50
2021/10/22 03:37:52;;;;;;;;;;;20.40;43.40;;;;;;8233478;28;20344;-49
2021/10/22 03:41:53;;;;;;;;;;;20.40;43.40;;;;;;8233161;28;19914;-50
2021/10/22 03:45:53;;;;;;;;;;;20.40;43.40;;;;;;8233262;28;19914;-50
2021/10/22 03:49:54;;;;;;;;;;;20.40;43.40;;;;;;8233238;28;19922;-49
2021/10/22 03:53:55;;;;;;;;;;;20.40;43.40;;;;;;8232905;28;19924;-49
2021/10/22 03:57:55;;;;;;;;;;;20.50;43.40;;;;;;8233566;28;20304;-48
2021/10/22 04:01:56;;;;;;;;;;;20.50;43.40;;;;;;8233031;28;19918;-49
2021/10/22 04:05:56;;;;;;;;;;;20.50;43.30;;;;;;8232645;28;20264;-49
2021/10/22 04:09:57;;;;;;;;;;;20.50;43.30;;;;;;8233159;28;19992;-50
2021/10/22 04:13:57;;;;;;;;;;;20.60;43.30;;;;;;8232018;28;19936;-52
2021/10/22 04:17:58;;;;;;;;;;;20.60;43.30;;;;;;8232206;28;20403;-53
2021/10/22 04:21:58;;;;;;;;;;;20.60;43.30;;;;;;8232738;28;20399;-48
2021/10/22 04:25:58;;;;;;;;;;;20.60;43.30;;;;;;8237747;28;20311;-48
2021/10/22 04:30:00;;;;;;;;;;;20.60;43.30;;;;;;8238156;28;20291;-48
2021/10/22 04:34:00;;;;;;;;;;;20.60;43.40;;;;;;8238424;28;19980;-52
2021/10/22 04:40:30;;;;;;;;;;;20.60;43.40;;;;;;8238033;28;19925;-49
2021/10/22 04:42:21;;;;;;;;;;;20.60;43.40;;;;;;8237657;28;20016;-49
2021/10/22 04:46:22;;;;;;;;;;;20.60;43.50;;;;;;8237793;28;19914;-49
2021/10/22 04:50:22;;;;;;;;;;;20.60;43.50;;;;;;8237579;28;19922;-49
2021/10/22 04:54:23;;;;;;;;;;;20.60;43.50;;;;;;8237992;28;20394;-49
2021/10/22 04:58:23;;;;;;;;;;;20.60;43.50;;;;;;8238213;28;19914;-48
2021/10/22 05:02:24;;;;;;;;;;;20.60;43.50;;;;;;8236954;28;19914;-49
2021/10/22 05:06:24;;;;;;;;;;;20.60;43.60;;;;;;8237292;28;20349;-50
2021/10/22 05:10:24;;;;;;;;;;;20.60;43.60;;;;;;8237358;28;19921;-49
2021/10/22 05:14:25;;;;;;;;;;;20.60;43.60;;;;;;8236706;28;19920;-49
2021/10/22 05:18:28;;;;;;;;;;;20.60;43.70;;;;;;8237026;28;19968;-50
2021/10/22 05:22:28;;;;;;;;;;;20.60;43.70;;;;;;8236895;28;20367;-49
2021/10/22 05:26:29;;;;;;;;;;;20.60;43.70;;;;;;8236370;28;20001;-49
2021/10/22 05:30:29;;;;;;;;;;;20.60;44.20;;;;;;8236999;28;19922;-49
2021/10/22 05:34:30;;;;;;;;;;;20.60;43.70;;;;;;8235777;28;19946;-49
2021/10/22 05:38:30;;;;;;;;;;;20.60;44.30;;;;;;8235698;28;19918;-48
2021/10/22 05:42:31;;;;;;;;;;;20.60;43.70;;;;;;8236362;28;19918;-49
2021/10/22 05:46:32;;;;;;;;;;;20.60;43.80;;;;;;8236079;28;19917;-49
2021/10/22 05:50:32;;;;;;;;;;;20.60;43.80;;;;;;8235583;28;19922;-49
2021/10/22 05:54:33;;;;;;;;;;;20.50;43.70;;;;;;8235897;28;19965;-49
2021/10/22 05:58:34;;;;;;;;;;;20.60;43.80;;;;;;8235549;28;19983;-48
2021/10/22 06:02:37;;;;;;;;;;;20.60;43.70;;;;;;8235134;28;19914;-49
2021/10/22 06:06:38;;;;;;;;;;;20.60;43.80;;;;;;8235346;28;19920;-48
2021/10/22 06:10:39;;;;;;;;;;;20.50;43.70;;;;;;8235555;28;19922;-48
2021/10/22 06:14:39;;;;;;;;;;;20.60;43.80;;;;;;8234730;28;19946;-49
2021/10/22 06:18:47;;;;;;;;;;;20.50;43.70;;;;;;8235315;28;20314;-48
2021/10/22 06:27:15;;;;;;;;;;;20.60;43.80;;;;;;8248169;28;19920;-49
2021/10/22 06:31:15;;;;;;;;;;;20.60;43.80;;;;;;8234811;28;19926;-48
2021/10/22 06:35:16;;;;;;;;;;;20.60;43.70;;;;;;8234374;28;20371;-50
2021/10/22 06:39:16;;;;;;;;;;;20.60;43.70;;;;;;8234339;28;19914;-50
2021/10/22 06:43:20;;;;;;;;;;;20.60;43.70;;;;;;8234253;28;20004;-50
2021/10/22 06:47:20;;;;;;;;;;;20.60;43.70;;;;;;8233117;28;19913;-52
2021/10/22 06:51:20;;;;;;;;;;;20.60;43.70;;;;;;8234373;28;19929;-51
2021/10/22 06:55:21;;;;;;;;;;;20.50;43.60;;;;;;8234076;28;19996;-51
2021/10/22 06:59:22;;;;;;;;;;;20.60;43.70;;;;;;8233414;28;20038;-51
2021/10/22 07:03:25;;;;;;;;;;;20.60;43.70;;;;;;8234263;28;19945;-49
2021/10/22 07:07:25;;;;;;;;;;;20.50;43.60;;;;;;8233076;28;19958;-48
2021/10/22 07:11:26;;;;;;;;;;;20.50;43.60;;;;;;8233356;28;20351;-48
2021/10/22 07:15:28;;;;;;;;;;;20.50;43.60;;;;;;8234271;28;19914;-47
2021/10/22 07:19:28;;;;;;;;;;;20.60;43.60;;;;;;8233759;28;19921;-47
2021/10/22 07:23:33;;;;;;;;;;;20.50;43.60;;;;;;8233003;28;19914;-47
2021/10/22 07:27:34;;;;;;;;;;;20.50;43.60;;;;;;8233373;28;19914;-47
2021/10/22 07:31:34;;;;;;;;;;;20.50;43.60;;;;;;8233537;28;19993;-47
2021/10/22 07:35:38;;;;;;;;;;;20.50;43.50;;;;;;8232967;28;19969;-49
2021/10/22 07:39:38;;;;;;;;;;;20.50;43.50;;;;;;8233478;28;20025;-48
2021/10/22 07:43:39;;;;;;;;;;;20.50;43.50;;;;;;8233227;28;19914;-46
2021/10/22 07:47:39;;;;;;;;;;;20.50;43.50;;;;;;8232797;28;19925;-48
2021/10/22 07:51:41;;;;;;;;;;;20.50;43.50;;;;;;8233207;28;20300;-47
2021/10/22 07:55:43;;;;;;;;;;;20.50;43.50;;;;;;8233389;28;20001;-49
2021/10/22 07:59:44;;;;;;;;;;;20.50;43.50;;;;;;8235771;28;19918;-49
2021/10/22 08:03:45;;;;;;;;;;;20.60;43.50;;;;;;8239396;28;20391;-49
2021/10/22 08:07:45;;;;;;;;;;;20.50;43.50;;;;;;8239037;28;19914;-49
2021/10/22 08:11:47;;;;;;;;;;;20.60;43.50;;;;;;8238913;28;19950;-49
2021/10/22 08:15:48;;;;;;;;;;;20.60;43.50;;;;;;8238786;28;19921;-46
2021/10/22 08:19:54;;;;;;;;;;;20.60;43.40;;;;;;8238646;28;20299;-47
2021/10/22 08:23:54;;;;;;;;;;;20.60;43.30;;;;;;8238573;28;19914;-47
2021/10/22 08:27:55;;;;;;;;;;;20.60;43.40;;;;;;8238533;28;19918;-47
2021/10/22 08:31:56;;;;;;;;;;;20.60;43.30;;;;;;8238585;28;20001;-47
2021/10/22 08:35:57;;;;;;;;;;;20.60;43.30;;;;;;8237816;28;20403;-47
2021/10/22 08:39:58;;;;;;;;;;;20.60;43.30;;;;;;8238417;28;19961;-47
2021/10/22 08:43:58;;;;;;;;;;;20.60;43.30;;;;;;8238111;28;20398;-48
2021/10/22 08:48:00;;;;;;;;;;;20.60;43.30;;;;;;8237409;28;20292;-46
2021/10/22 08:52:02;;;;;;;;;;;20.60;43.30;;;;;;8237934;28;20283;-46
2021/10/22 08:56:05;;;;;;;;;;;20.70;43.30;;;;;;8237723;28;19914;-47
2021/10/22 09:00:06;;;;;;;;;;;20.60;43.30;;;;;;8237161;28;20001;-48
2021/10/22 09:04:26;;;;;;;;;;;20.60;43.30;;;;;;8238338;28;19914;-47
2021/10/22 09:08:34;;;;;;;;;;;20.60;43.30;;;;;;8251581;28;19914;-47
2021/10/22 09:12:41;;;;;;;;;;;20.60;43.40;;;;;;8236581;28;19945;-47
2021/10/22 09:16:49;;;;;;;;;;;20.60;43.30;;;;;;8237300;28;19914;-47
2021/10/22 09:20:51;;;;;;;;;;;20.70;43.40;;;;;;8236740;28;19918;-47
2021/10/22 09:24:53;;;;;;;;;;;20.70;43.40;;;;;;8236604;28;19914;-47
2021/10/22 09:28:54;;;;;;;;;;;20.60;43.30;;;;;;8236584;28;19914;-47
2021/10/22 09:32:58;;;;;;;;;;;20.70;43.30;;;;;;8235927;28;19945;-47
2021/10/22 09:37:10;;;;;;;;;;;20.70;43.30;;;;;;8236691;28;20017;-48
2021/10/22 09:41:10;;;;;;;;;;;20.70;43.30;;;;;;8236169;28;20343;-48
2021/10/22 09:45:22;;;;;;;;;;;20.70;43.30;;;;;;8236266;28;19918;-48
2021/10/22 09:49:24;;;;;;;;;;;20.70;43.30;;;;;;8236199;28;19914;-48
2021/10/22 09:53:27;;;;;;;;;;;20.70;43.30;;;;;;8235483;28;20279;-49
2021/10/22 09:57:28;;;;;;;;;;;20.70;43.30;;;;;;8236241;28;19956;-48
2021/10/22 10:01:36;;;;;;;;;;;20.70;43.20;;;;;;8235589;28;19934;-48
2021/10/22 10:05:36;;;;;;;;;;;20.70;43.20;;;;;;8234495;28;19981;-49
2021/10/22 10:09:39;;;;;;;;;;;20.70;43.20;;;;;;8234726;28;20046;-47
2021/10/22 10:13:40;;;;;;;;;;;20.70;43.20;;;;;;8234953;28;20182;-48
2021/10/22 10:17:46;;;;;;;;;;;20.70;43.10;;;;;;8234789;28;19914;-48
2021/10/22 10:21:48;;;;;;;;;;;20.80;43.10;;;;;;8234747;28;19918;-48
2021/10/22 10:25:49;;;;;;;;;;;20.80;43.10;;;;;;8234890;28;19914;-48
2021/10/22 10:30:04;;;;;;;;;;;20.70;42.90;;;;;;8234092;28;19993;-48
2021/10/22 10:34:23;;;;;;;;;;;20.80;43.00;;;;;;8234780;28;19914;-49
2021/10/22 10:38:42;;;;;;;;;;;20.70;42.90;;;;;;8233905;28;19922;-50
2021/10/22 10:42:49;;;;;;;;;;;20.70;42.90;;;;;;8234688;28;19917;-49
2021/10/22 10:46:50;;;;;;;;;;;20.80;42.90;;;;;;8234286;28;20279;-52
2021/10/22 10:50:58;;;;;;;;;;;20.70;42.90;;;;;;8233827;28;19925;-49
2021/10/22 10:55:14;;;;;;;;;;;20.80;43.00;;;;;;8234284;28;19925;-47
2021/10/22 10:59:35;;;;;;;;;;;20.80;42.90;;;;;;8232775;28;19921;-48
2021/10/22 11:03:43;;;;;;;;;;;20.70;42.90;;;;;;8233769;28;19969;-48
2021/10/22 11:07:45;;;;;;;;;;;20.80;42.90;;;;;;8234111;28;19924;-49
2021/10/22 11:11:57;;;;;;;;;;;20.80;42.90;;;;;;8233132;28;19922;-48
2021/10/22 11:15:58;;;;;;;;;;;20.80;42.90;;;;;;8233570;28;19925;-49
2021/10/22 11:20:00;;;;;;;;;;;20.80;42.90;;;;;;8233635;28;19914;-48
2021/10/22 11:24:02;;;;;;;;;;;20.80;42.90;;;;;;8233016;28;19921;-48
2021/10/22 11:28:09;;;;;;;;;;;20.70;42.80;;;;;;8234024;28;19914;-49
2021/10/22 11:32:11;;;;;;;;;;;20.80;42.80;;;;;;8231888;28;19922;-48
2021/10/22 11:36:16;;;;;;;;;;;20.70;42.70;;;;;;8240027;28;20406;-48
2021/10/22 11:40:19;;;;;;;;;;;20.80;42.80;;;;;;8239986;28;20427;-48
2021/10/22 11:44:20;;;;;;;;;;;20.80;42.70;;;;;;8239385;28;19953;-48
2021/10/22 11:48:31;;;;;;;;;;;20.80;42.70;;;;;;8240103;28;19918;-50
2021/10/22 11:52:32;;;;;;;;;;;20.80;42.60;;;;;;8239618;28;19933;-48
2021/10/22 11:56:36;;;;;;;;;;;20.80;42.60;;;;;;8239018;28;19914;-47
2021/10/22 12:00:46;;;;;;;;;;;20.80;42.60;;;;;;8239486;28;20343;-48
2021/10/22 12:04:51;;;;;;;;;;;20.80;42.50;;;;;;8239370;28;19914;-48
2021/10/22 12:08:55;;;;;;;;;;;20.90;42.50;;;;;;8238712;28;19918;-49
2021/10/22 12:12:56;;;;;;;;;;;20.90;42.50;;;;;;8239190;28;19922;-48
2021/10/22 12:17:00;;;;;;;;;;;20.90;42.50;;;;;;8238873;28;20430;-48
2021/10/22 12:21:01;;;;;;;;;;;20.90;42.40;;;;;;8238172;28;19918;-49
2021/10/22 12:25:20;;;;;;;;;;;20.90;42.40;;;;;;8238814;28;19921;-48
2021/10/22 12:29:21;;;;;;;;;;;20.90;42.30;;;;;;8238137;28;19925;-48
2021/10/22 12:33:21;;;;;;;;;;;20.90;42.30;;;;;;8238780;28;19929;-48
2021/10/22 12:37:41;;;;;;;;;;;20.90;42.30;;;;;;8237216;28;19914;-49
2021/10/22 12:41:42;;;;;;;;;;;20.90;42.30;;;;;;8237543;28;19920;-48
2021/10/22 12:45:47;;;;;;;;;;;20.90;42.30;;;;;;8236335;28;19914;-45
2021/10/22 12:49:50;;;;;;;;;;;20.90;42.20;;;;;;8252693;28;19914;-50
2021/10/22 12:53:53;;;;;;;;;;;20.90;42.10;;;;;;8237622;28;20446;-48
2021/10/22 12:58:10;;;;;;;;;;;20.90;42.20;;;;;;8237806;28;20283;-47
2021/10/22 13:02:23;;;;;;;;;;;20.80;42.10;;;;;;8237120;28;19914;-47
2021/10/22 13:06:34;;;;;;;;;;;20.80;42.10;;;;;;8236412;28;19980;-47
2021/10/22 13:15:34;;;;;;;;;;;20.80;42.00;;;;;;8235614;28;20498;-47
2021/10/22 13:23:16;;;;;;;;;;;20.80;42.00;;;;;;8236178;28;20386;-48
2021/10/22 13:27:17;;;;;;;;;;;20.80;41.90;;;;;;8237025;28;20263;-49
2021/10/22 13:31:19;;;;;;;;;;;20.80;41.90;;;;;;8236516;28;19948;-49
2021/10/22 13:35:21;;;;;;;;;;;20.80;41.80;;;;;;8236030;28;19913;-48
2021/10/22 13:39:21;;;;;;;;;;;20.80;41.80;;;;;;8220662;28;19919;-48
2021/10/22 13:43:22;;;;;;;;;;;20.80;41.70;;;;;;8235178;28;19914;-47
2021/10/22 13:47:22;;;;;;;;;;;20.80;41.60;;;;;;8235333;28;19960;-52
2021/10/22 13:51:23;;;;;;;;;;;20.90;41.60;;;;;;8235685;28;19925;-51
2021/10/22 13:55:23;;;;;;;;;;;20.90;41.60;;;;;;8235621;28;20017;-48
2021/10/22 13:59:24;;;;;;;;;;;20.80;41.50;;;;;;8235160;28;19914;-47
2021/10/22 14:03:24;;;;;;;;;;;20.80;41.50;;;;;;8235484;28;19921;-48
2021/10/22 14:07:25;;;;;;;;;;;20.80;41.50;;;;;;8234201;28;19914;-49
2021/10/22 14:11:26;;;;;;;;;;;20.80;41.60;;;;;;8234615;28;19973;-48
2021/10/22 14:24:09;;;;;;;;;;;20.80;41.70;;;;;;8206632;28;19921;-46
2021/10/22 14:32:28;;;;;;;;;;;20.80;41.40;;;;;;8235868;28;19929;-47
2021/10/22 14:36:29;;;;;;;;;;;20.80;41.60;;;;;;8232787;28;19914;-50
2021/10/22 14:40:30;;;;;;;;;;;20.90;41.50;;;;;;8234377;28;20010;-49
2021/10/22 14:44:34;;;;;;;;;;;20.90;41.40;;;;;;8233969;28;19945;-47
2021/10/22 14:48:40;;;;;;;;;;;21.00;41.30;;;;;;8234306;28;19918;-47
2021/10/22 14:52:59;;;;;;;;;;;21.00;41.10;;;;;;8237939;28;20263;-48
2021/10/22 14:57:00;;;;;;;;;;;21.00;41.20;;;;;;8233760;28;19973;-47
2021/10/22 15:01:03;;;;;;;;;;;21.00;41.10;;;;;;8234068;28;19914;-49
2021/10/22 15:05:03;;;;;;;;;;;21.00;41.10;;;;;;8233880;28;20394;-49
2021/10/22 15:09:05;;;;;;;;;;;21.00;41.10;;;;;;8232988;28;19914;-48
2021/10/22 15:13:05;;;;;;;;;;;21.00;41.10;;;;;;8233398;28;19969;-48
2021/10/22 15:17:06;;;;;;;;;;;21.00;41.00;;;;;;8233446;28;19918;-48
2021/10/22 15:21:06;;;;;;;;;;;21.00;41.00;;;;;;8233789;28;20367;-47
2021/10/22 15:25:07;;;;;;;;;;;21.00;41.10;;;;;;8233582;28;19914;-47
2021/10/22 15:29:07;;;;;;;;;;;20.90;41.10;;;;;;8232928;28;20001;-49
2021/10/22 15:33:08;;;;;;;;;;;20.90;41.10;;;;;;8232772;28;19929;-49
2021/10/22 15:37:08;;;;;;;;;;;20.90;41.10;;;;;;8233148;28;19961;-48
2021/10/22 15:41:09;;;;;;;;;;;20.90;41.10;;;;;;8232420;28;19914;-50
2021/10/22 15:45:10;;;;;;;;;;;20.90;41.10;;;;;;8233625;28;19961;-48
2021/10/22 15:49:10;;;;;;;;;;;20.80;41.10;;;;;;8233164;28;20045;-49
2021/10/22 15:53:11;;;;;;;;;;;20.90;41.10;;;;;;8232744;28;19965;-48
2021/10/22 15:57:11;;;;;;;;;;;20.80;41.10;;;;;;8232949;28;19918;-48
2021/10/22 16:01:12;;;;;;;;;;;20.80;41.10;;;;;;8233001;28;19984;-48
2021/10/22 16:05:12;;;;;;;;;;;20.70;41.10;;;;;;8232857;28;20338;-48
2021/10/22 16:09:24;;;;;;;;;;;20.70;41.10;;;;;;8232441;28;19917;-48
2021/10/22 16:13:38;;;;;;;;;;;20.70;41.10;;;;;;8233072;28;19922;-48
2021/10/22 16:17:38;;;;;;;;;;;20.80;41.20;;;;;;8233571;28;20379;-48
2021/10/22 16:21:39;;;;;;;;;;;20.70;41.10;;;;;;8237366;28;19949;-49
2021/10/22 16:25:39;;;;;;;;;;;20.70;41.10;;;;;;8238780;28;19914;-49
2021/10/22 16:29:41;;;;;;;;;;;20.70;41.70;;;;;;8238317;28;19918;-49
2021/10/22 16:37:43;;;;;;;;;;;20.70;41.30;;;;;;8238719;28;20005;-48
2021/10/22 16:41:44;;;;;;;;;;;20.70;41.30;;;;;;8237765;28;19922;-48
2021/10/22 16:45:45;;;;;;;;;;;20.60;41.30;;;;;;8238027;28;19914;-48
2021/10/22 16:49:46;;;;;;;;;;;20.60;41.30;;;;;;8238211;28;19914;-47
2021/10/22 16:53:50;;;;;;;;;;;20.60;41.40;;;;;;8237113;28;19922;-48
2021/10/22 16:57:50;;;;;;;;;;;20.60;41.40;;;;;;8237806;28;19925;-49
2021/10/22 17:01:51;;;;;;;;;;;20.60;41.40;;;;;;8237514;28;19914;-48
2021/10/22 17:05:51;;;;;;;;;;;20.70;41.50;;;;;;8236932;28;20399;-48
2021/10/22 17:09:52;;;;;;;;;;;20.70;41.60;;;;;;8237625;28;19999;-49
2021/10/22 17:13:52;;;;;;;;;;;20.70;41.50;;;;;;8237129;28;19922;-48
2021/10/22 17:17:53;;;;;;;;;;;20.70;41.40;;;;;;8236547;28;19918;-47
2021/10/22 17:21:53;;;;;;;;;;;20.80;41.50;;;;;;8236750;28;20325;-49
2021/10/22 17:25:54;;;;;;;;;;;20.70;41.40;;;;;;8237167;28;19914;-49
2021/10/22 17:29:54;;;;;;;;;;;20.80;41.50;;;;;;8236312;28;19968;-50
2021/10/22 17:33:55;;;;;;;;;;;20.70;41.40;;;;;;8235645;28;19952;-50
2021/10/22 17:37:56;;;;;;;;;;;20.80;41.40;;;;;;8236543;28;20268;-48
2021/10/22 17:41:57;;;;;;;;;;;20.70;41.30;;;;;;8235968;28;20107;-50
2021/10/22 17:45:58;;;;;;;;;;;20.70;41.40;;;;;;8236757;28;20026;-50
2021/10/22 17:49:58;;;;;;;;;;;20.70;41.40;;;;;;8236408;28;20272;-47
2021/10/22 17:53:59;;;;;;;;;;;20.70;41.30;;;;;;8235625;28;19922;-48
2021/10/22 17:58:00;;;;;;;;;;;20.70;41.30;;;;;;8236139;28;20295;-51
2021/10/22 18:02:00;;;;;;;;;;;20.70;41.20;;;;;;8235806;28;19914;-51
2021/10/22 18:06:01;;;;;;;;;;;20.70;41.20;;;;;;8235449;28;19964;-48
2021/10/22 18:10:04;;;;;;;;;;;20.70;41.20;;;;;;8235639;28;19918;-48
2021/10/22 18:14:04;;;;;;;;;;;20.60;41.20;;;;;;8234972;28;19973;-48
2021/10/22 18:18:05;;;;;;;;;;;20.60;41.30;;;;;;8235054;28;20276;-48
2021/10/22 18:22:06;;;;;;;;;;;20.60;41.30;;;;;;8235127;28;19914;-48
2021/10/22 18:26:06;;;;;;;;;;;20.60;41.30;;;;;;8234965;28;19968;-48
2021/10/22 18:30:07;;;;;;;;;;;20.60;41.30;;;;;;8249659;28;20264;-48
2021/10/22 18:34:09;;;;;;;;;;;20.50;41.30;;;;;;8234811;28;20379;-48
2021/10/22 18:38:09;;;;;;;;;;;20.50;41.30;;;;;;8234204;28;20315;-50
2021/10/22 18:42:10;;;;;;;;;;;20.50;41.40;;;;;;8234486;28;19910;-48
2021/10/22 18:46:17;;;;;;;;;;;20.50;41.30;;;;;;8234664;28;19914;-48
2021/10/22 18:50:18;;;;;;;;;;;20.50;41.40;;;;;;8234139;28;20382;-48
2021/10/22 18:54:19;;;;;;;;;;;20.50;41.40;;;;;;8234212;28;19929;-48
2021/10/22 18:58:20;;;;;;;;;;;20.50;41.40;;;;;;8234194;28;20290;-48
2021/10/22 19:02:22;;;;;;;;;;;20.50;41.40;;;;;;8232723;28;20017;-48
2021/10/22 19:06:42;;;;;;;;;;;20.50;41.40;;;;;;8234294;28;19942;-47
2021/10/22 19:10:42;;;;;;;;;;;20.50;41.40;;;;;;8234068;28;19926;-48
2021/10/22 19:14:54;;;;;;;;;;;20.40;41.30;;;;;;8233300;28;20330;-48
2021/10/22 19:18:54;;;;;;;;;;;20.40;41.30;;;;;;8233419;28;19921;-48
2021/10/22 19:22:56;;;;;;;;;;;20.40;41.30;;;;;;8233525;28;20029;-48
2021/10/22 19:26:57;;;;;;;;;;;20.40;41.30;;;;;;8232926;28;19921;-48
2021/10/22 19:30:57;;;;;;;;;;;20.40;41.40;;;;;;8233630;28;19964;-48
2021/10/22 19:34:58;;;;;;;;;;;20.40;41.30;;;;;;8233408;28;20279;-49
2021/10/22 19:38:59;;;;;;;;;;;20.40;41.40;;;;;;8232665;28;20335;-49
2021/10/22 19:43:00;;;;;;;;;;;20.30;41.40;;;;;;8233512;28;20414;-48
2021/10/22 19:47:01;;;;;;;;;;;20.40;41.40;;;;;;8233439;28;19929;-49
2021/10/22 19:51:02;;;;;;;;;;;20.30;41.40;;;;;;8232951;28;20421;-49
2021/10/22 19:55:03;;;;;;;;;;;20.30;41.30;;;;;;8235692;28;19960;-48
2021/10/22 19:59:04;;;;;;;;;;;20.30;41.30;;;;;;8239472;28;19912;-49
2021/10/22 20:03:05;;;;;;;;;;;20.40;41.40;;;;;;8239170;28;19914;-48
2021/10/22 20:07:05;;;;;;;;;;;20.40;41.40;;;;;;8239303;28;20415;-51
2021/10/22 20:11:06;;;;;;;;;;;20.40;41.30;;;;;;8238816;28;19968;-50
2021/10/22 20:15:06;;;;;;;;;;;20.40;41.30;;;;;;8239415;28;19921;-49
2021/10/22 20:19:07;;;;;;;;;;;20.50;41.30;;;;;;8238735;28;20001;-48
2021/10/22 20:23:07;;;;;;;;;;;20.50;41.30;;;;;;8238287;28;19921;-49
2021/10/22 20:27:08;;;;;;;;;;;20.50;41.30;;;;;;8239252;28;19909;-47
2021/10/22 20:31:09;;;;;;;;;;;20.50;41.10;;;;;;8238394;28;20374;-49
2021/10/22 20:35:11;;;;;;;;;;;20.50;41.20;;;;;;8237828;28;19910;-48
2021/10/22 20:39:12;;;;;;;;;;;20.40;41.10;;;;;;8238154;28;19914;-47
2021/10/22 20:43:12;;;;;;;;;;;20.50;41.00;;;;;;8238040;28;20359;-48
2021/10/22 20:47:14;;;;;;;;;;;20.50;41.00;;;;;;8237869;28;20001;-49
2021/10/22 20:59:54;;;;;;;;;;;20.40;40.90;;;;;;8237655;28;19968;-48
2021/10/22 21:03:54;;;;;;;;;;;20.40;41.00;;;;;;8237627;28;19917;-47
2021/10/22 21:07:54;;;;;;;;;;;20.40;41.00;;;;;;8236228;28;19913;-48
2021/10/22 21:11:55;;;;;;;;;;;20.40;41.00;;;;;;8236947;28;19968;-48
2021/10/22 21:15:56;;;;;;;;;;;20.40;41.10;;;;;;8237305;28;20320;-49
2021/10/22 21:19:56;;;;;;;;;;;20.30;41.00;;;;;;8237290;28;20348;-48
2021/10/22 21:23:57;;;;;;;;;;;20.30;41.00;;;;;;8236527;28;20284;-49
2021/10/22 21:27:57;;;;;;;;;;;20.30;41.10;;;;;;8236957;28;19914;-48
2021/10/22 21:31:58;;;;;;;;;;;20.30;41.00;;;;;;8236769;28;20410;-49
2021/10/22 21:35:59;;;;;;;;;;;20.20;41.00;;;;;;8236173;28;19984;-48
2021/10/22 21:39:59;;;;;;;;;;;20.20;41.00;;;;;;8236432;28;20007;-48
2021/10/22 21:44:00;;;;;;;;;;;20.20;41.00;;;;;;8236743;28;19917;-48
2021/10/22 21:48:00;;;;;;;;;;;20.20;41.00;;;;;;8235766;28;20008;-48
2021/10/22 21:52:01;;;;;;;;;;;20.20;41.00;;;;;;8236284;28;19922;-48
2021/10/22 21:56:02;;;;;;;;;;;20.20;41.50;;;;;;8235969;28;20016;-48
2021/10/22 22:00:04;;;;;;;;;;;20.20;41.00;;;;;;8235277;28;19956;-49
2021/10/22 22:04:05;;;;;;;;;;;20.20;41.00;;;;;;8212822;28;19913;-48
2021/10/22 22:08:05;;;;;;;;;;;20.20;41.00;;;;;;8235346;28;19932;-47
2021/10/22 22:12:06;;;;;;;;;;;20.10;41.00;;;;;;8235930;28;19922;-49
2021/10/22 22:16:06;;;;;;;;;;;20.20;41.00;;;;;;8235610;28;19920;-49
2021/10/22 22:20:07;;;;;;;;;;;20.10;41.00;;;;;;8234554;28;19914;-48
2021/10/22 22:24:07;;;;;;;;;;;20.10;41.10;;;;;;8235461;28;20008;-48
2021/10/22 22:28:08;;;;;;;;;;;20.10;41.00;;;;;;8235010;28;19910;-48
2021/10/22 22:32:09;;;;;;;;;;;20.10;41.00;;;;;;8234760;28;19918;-48
2021/10/22 22:36:09;;;;;;;;;;;20.10;41.00;;;;;;8234813;28;19914;-48
2021/10/22 22:40:10;;;;;;;;;;;20.10;41.00;;;;;;8234891;28;20260;-48
2021/10/22 22:44:11;;;;;;;;;;;20.10;41.00;;;;;;8234174;28;19918;-48
2021/10/22 22:48:11;;;;;;;;;;;20.10;40.90;;;;;;8234768;28;19917;-48
2021/10/22 22:52:12;;;;;;;;;;;20.10;41.00;;;;;;8234803;28;19922;-48
2021/10/22 22:56:12;;;;;;;;;;;20.00;40.90;;;;;;8234096;28;19914;-48
2021/10/22 23:00:13;;;;;;;;;;;20.00;40.90;;;;;;8234517;28;19921;-49
2021/10/22 23:04:13;;;;;;;;;;;20.10;40.90;;;;;;8233991;28;19970;-48
2021/10/22 23:08:14;;;;;;;;;;;20.00;40.90;;;;;;8233916;28;19910;-48
2021/10/22 23:12:15;;;;;;;;;;;20.00;40.90;;;;;;8233818;28;19929;-48
2021/10/22 23:16:15;;;;;;;;;;;20.00;40.90;;;;;;8234387;28;19945;-48
2021/10/22 23:20:16;;;;;;;;;;;20.00;40.90;;;;;;8233351;28;19918;-47
2021/10/22 23:24:17;;;;;;;;;;;20.00;40.90;;;;;;8233834;28;19921;-48
2021/10/22 23:28:18;;;;;;;;;;;20.00;40.90;;;;;;8233477;28;19910;-48
2021/10/22 23:32:18;;;;;;;;;;;20.00;40.80;;;;;;8232859;28;20010;-48
2021/10/22 23:36:19;;;;;;;;;;;20.00;40.90;;;;;;8233889;28;19918;-48
2021/10/22 23:40:19;;;;;;;;;;;19.90;40.80;;;;;;8233998;28;19921;-48
2021/10/22 23:44:20;;;;;;;;;;;19.90;40.80;;;;;;8233054;28;19914;-47
2021/10/22 23:48:20;;;;;;;;;;;19.90;40.90;;;;;;8234063;28;19910;-47
2021/10/22 23:52:21;;;;;;;;;;;19.90;40.80;;;;;;8233328;28;19954;-47
2021/10/22 23:56:21;;;;;;;;;;;19.90;40.80;;;;;;8232799;28;19993;-47
